createdAt,value
2023-05-19T00:00:10.420Z,3.17
2023-05-19T00:02:53.245Z,3.60
2023-05-19T00:05:22.954Z,4.80
2023-05-19T00:07:52.705Z,4.57
2023-05-19T00:10:20.932Z,3.60
2023-05-19T00:12:49.273Z,4.03
2023-05-19T00:15:17.486Z,3.85
2023-05-19T00:17:45.515Z,4.68
2023-05-19T00:20:15.590Z,3.08
2023-05-19T00:22:43.973Z,3.67
2023-05-19T00:25:11.680Z,4.32
2023-05-19T00:27:39.613Z,3.67
2023-05-19T00:30:09.650Z,6.90
2023-05-19T00:32:37.401Z,4.15
2023-05-19T00:35:05.484Z,4.35
2023-05-19T00:37:34.632Z,4.80
2023-05-19T00:40:02.318Z,3.75
2023-05-19T00:42:32.549Z,4.15
2023-05-19T00:45:00.706Z,3.40
2023-05-19T00:47:28.615Z,3.70
2023-05-19T00:49:56.274Z,4.80
2023-05-19T00:52:24.375Z,3.83
2023-05-19T00:54:56.271Z,4.13
2023-05-19T00:57:24.282Z,4.55
2023-05-19T00:59:52.096Z,4.55
2023-05-19T01:02:19.853Z,4.47
2023-05-19T01:04:48.061Z,4.43
2023-05-19T01:07:16.303Z,3.80
2023-05-19T01:09:44.293Z,3.65
2023-05-19T01:12:13.885Z,3.90
2023-05-19T01:14:42.102Z,3.97
2023-05-19T01:17:20.491Z,4.07
2023-05-19T01:19:57.271Z,4.22
2023-05-19T01:22:42.779Z,3.55
2023-05-19T01:25:37.703Z,3.90
2023-05-19T01:28:26.883Z,4.07
2023-05-19T01:30:56.973Z,3.70
2023-05-19T01:33:25.464Z,3.60
2023-05-19T01:35:56.100Z,3.72
2023-05-19T01:38:26.788Z,4.28
2023-05-19T01:40:56.850Z,4.15
2023-05-19T01:43:27.135Z,4.32
2023-05-19T01:45:58.547Z,4.82
2023-05-19T01:48:26.915Z,4.75
2023-05-19T01:50:57.083Z,4.30
2023-05-19T01:53:25.158Z,4.60
2023-05-19T01:55:57.022Z,4.72
2023-05-19T01:58:37.227Z,4.40
2023-05-19T02:01:22.482Z,5.00
2023-05-19T02:04:07.640Z,4.80
2023-05-19T02:06:42.478Z,5.28
2023-05-19T02:09:19.424Z,5.30
2023-05-19T02:11:54.239Z,4.70
2023-05-19T02:14:26.659Z,4.85
2023-05-19T02:16:58.734Z,5.03
2023-05-19T02:19:28.360Z,4.80
2023-05-19T02:21:57.191Z,6.00
2023-05-19T02:24:25.377Z,6.28
2023-05-19T02:26:54.436Z,4.80
2023-05-19T02:29:22.613Z,4.93
2023-05-19T02:31:51.533Z,4.72
2023-05-19T02:34:21.881Z,4.70
2023-05-19T02:36:50.505Z,6.68
2023-05-19T02:39:18.463Z,4.63
2023-05-19T02:41:46.178Z,5.28
2023-05-19T02:44:13.986Z,5.47
2023-05-19T02:46:41.808Z,5.05
2023-05-19T02:49:09.982Z,5.20
2023-05-19T02:51:39.041Z,5.50
2023-05-19T02:54:07.284Z,5.20
2023-05-19T02:56:34.998Z,5.20
2023-05-19T02:59:03.123Z,5.00
2023-05-19T03:01:32.521Z,7.50
2023-05-19T03:04:00.515Z,5.20
2023-05-19T03:06:29.312Z,5.88
2023-05-19T03:08:58.377Z,5.18
2023-05-19T03:11:26.188Z,6.15
2023-05-19T03:13:53.923Z,6.13
2023-05-19T03:16:21.882Z,5.50
2023-05-19T03:18:49.707Z,5.03
2023-05-19T03:21:17.633Z,5.80
2023-05-19T03:23:45.436Z,5.60
2023-05-19T03:26:14.471Z,4.95
2023-05-19T03:28:42.236Z,5.85
2023-05-19T03:31:09.948Z,7.38
2023-05-19T03:33:40.026Z,6.85
2023-05-19T03:36:08.834Z,6.43
2023-05-19T03:38:39.408Z,6.00
2023-05-19T03:41:07.242Z,5.10
2023-05-19T03:43:36.764Z,6.43
2023-05-19T03:46:06.755Z,5.97
2023-05-19T03:48:54.398Z,5.60
2023-05-19T03:51:42.969Z,5.95
2023-05-19T03:54:23.365Z,4.80
2023-05-19T03:56:52.249Z,6.68
2023-05-19T03:59:21.356Z,5.80
2023-05-19T04:01:52.568Z,6.35
2023-05-19T04:04:21.597Z,4.90
2023-05-19T04:06:49.601Z,5.55
2023-05-19T04:09:17.834Z,5.03
2023-05-19T04:11:45.990Z,5.15
2023-05-19T04:14:13.726Z,5.47
2023-05-19T04:16:43.040Z,4.82
2023-05-19T04:19:10.835Z,5.10
2023-05-19T04:21:38.604Z,5.78
2023-05-19T04:24:06.952Z,4.93
2023-05-19T04:26:37.372Z,5.95
2023-05-19T04:29:05.490Z,5.28
2023-05-19T04:31:34.290Z,5.72
2023-05-19T04:34:04.306Z,5.45
2023-05-19T04:36:33.849Z,5.20
2023-05-19T04:39:05.888Z,5.88
2023-05-19T04:41:34.934Z,5.78
2023-05-19T04:44:04.727Z,4.75
2023-05-19T04:46:32.670Z,4.38
2023-05-19T04:49:01.305Z,5.88
2023-05-19T04:51:31.224Z,5.70
2023-05-19T04:54:01.566Z,5.88
2023-05-19T04:56:29.908Z,4.15
2023-05-19T04:58:58.154Z,4.97
2023-05-19T05:01:28.174Z,4.80
2023-05-19T05:03:58.773Z,4.68
2023-05-19T05:06:28.449Z,4.50
2023-05-19T05:08:58.043Z,4.53
2023-05-19T05:11:27.048Z,4.82
2023-05-19T05:13:57.828Z,4.93
2023-05-19T05:16:27.888Z,5.00
2023-05-19T05:18:58.298Z,4.03
2023-05-19T05:21:27.048Z,4.85
2023-05-19T05:23:55.478Z,4.07
2023-05-19T05:26:31.324Z,4.40
2023-05-19T05:28:59.470Z,4.20
2023-05-19T05:31:27.697Z,5.20
2023-05-19T05:33:56.467Z,3.33
2023-05-19T05:36:28.113Z,2.97
2023-05-19T05:38:55.924Z,3.33
2023-05-19T05:41:24.477Z,3.40
2023-05-19T05:43:55.085Z,2.70
2023-05-19T05:46:22.938Z,3.38
2023-05-19T05:48:51.892Z,2.90
2023-05-19T05:51:22.479Z,3.47
2023-05-19T05:53:54.352Z,3.17
2023-05-19T05:56:33.568Z,3.08
2023-05-19T05:59:04.145Z,2.70
2023-05-19T06:01:34.245Z,2.88
2023-05-19T06:04:04.180Z,3.50
2023-05-19T06:06:32.630Z,2.67
2023-05-19T06:09:03.316Z,2.33
2023-05-19T06:11:33.525Z,2.90
2023-05-19T06:14:01.530Z,2.33
2023-05-19T06:16:48.884Z,2.30
2023-05-19T06:19:19.737Z,2.80
2023-05-19T06:21:48.012Z,3.60
2023-05-19T06:24:16.457Z,2.70
2023-05-19T06:26:45.441Z,2.20
2023-05-19T06:29:20.459Z,2.10
2023-05-19T06:31:52.554Z,2.90
2023-05-19T06:34:22.420Z,1.90
2023-05-19T06:36:50.202Z,2.50
2023-05-19T06:39:20.087Z,2.27
2023-05-19T06:41:47.854Z,2.17
2023-05-19T06:44:35.532Z,2.87
2023-05-19T06:47:04.781Z,3.00
2023-05-19T06:49:32.515Z,1.97
2023-05-19T06:52:00.338Z,2.30
2023-05-19T06:54:28.788Z,2.40
2023-05-19T06:56:58.197Z,2.20
2023-05-19T06:59:25.884Z,2.37
2023-05-19T07:01:53.963Z,2.27
2023-05-19T07:04:23.228Z,2.70
2023-05-19T07:06:51.038Z,2.43
2023-05-19T07:09:18.995Z,2.27
2023-05-19T07:11:47.839Z,2.50
2023-05-19T07:14:15.638Z,3.00
2023-05-19T07:16:43.504Z,1.80
2023-05-19T07:19:11.324Z,2.63
2023-05-19T07:21:42.259Z,2.40
2023-05-19T07:24:10.011Z,2.00
2023-05-19T07:26:37.768Z,2.60
2023-05-19T07:29:05.732Z,2.30
2023-05-19T07:31:33.779Z,2.10
2023-05-19T07:34:02.387Z,2.33
2023-05-19T07:36:30.111Z,2.83
2023-05-19T07:39:00.548Z,1.83
2023-05-19T07:41:28.347Z,3.30
2023-05-19T07:43:56.117Z,2.40
2023-05-19T07:46:26.795Z,2.13
2023-05-19T07:48:54.739Z,2.77
2023-05-19T07:51:24.752Z,2.73
2023-05-19T07:53:53.680Z,2.93
2023-05-19T07:56:25.653Z,2.13
2023-05-19T07:58:54.606Z,1.93
2023-05-19T08:01:22.341Z,2.70
2023-05-19T08:03:50.155Z,2.50
2023-05-19T08:06:20.627Z,2.20
2023-05-19T08:08:48.347Z,2.90
2023-05-19T08:11:17.615Z,2.30
2023-05-19T08:13:50.731Z,2.53
2023-05-19T08:16:19.838Z,2.40
2023-05-19T08:18:48.857Z,2.20
2023-05-19T08:21:16.612Z,2.30
2023-05-19T08:23:44.370Z,2.70
2023-05-19T08:26:13.281Z,2.50
2023-05-19T08:28:42.370Z,2.60
2023-05-19T08:31:11.572Z,2.30
2023-05-19T08:33:40.637Z,2.07
2023-05-19T08:36:08.961Z,2.60
2023-05-19T08:38:39.129Z,1.83
2023-05-19T08:41:08.414Z,2.63
2023-05-19T08:43:40.391Z,2.13
2023-05-19T08:46:08.715Z,2.37
2023-05-19T08:48:43.111Z,2.63
2023-05-19T08:51:18.141Z,2.40
2023-05-19T08:53:51.158Z,2.57
2023-05-19T08:56:22.874Z,2.57
2023-05-19T08:58:53.565Z,2.60
2023-05-19T09:01:24.385Z,1.73
2023-05-19T09:03:55.432Z,2.20
2023-05-19T09:06:25.513Z,3.00
2023-05-19T09:08:53.177Z,2.23
2023-05-19T09:11:22.511Z,2.23
2023-05-19T09:13:50.559Z,2.30
2023-05-19T09:16:18.492Z,2.70
2023-05-19T09:19:00.070Z,2.23
2023-05-19T09:21:31.316Z,2.70
2023-05-19T09:24:06.755Z,2.40
2023-05-19T09:26:40.845Z,2.97
2023-05-19T09:29:17.444Z,2.20
2023-05-19T09:31:49.947Z,1.73
2023-05-19T09:34:19.483Z,2.00
2023-05-19T09:36:50.559Z,2.50
2023-05-19T09:39:19.840Z,2.00
2023-05-19T09:41:49.648Z,2.07
2023-05-19T09:44:24.721Z,2.50
2023-05-19T09:46:55.046Z,3.17
2023-05-19T09:49:25.328Z,1.77
2023-05-19T09:51:56.707Z,2.40
2023-05-19T09:54:29.323Z,2.27
2023-05-19T09:57:01.075Z,2.23
2023-05-19T09:59:33.367Z,2.60
2023-05-19T10:02:02.527Z,1.57
2023-05-19T10:04:34.153Z,2.23
2023-05-19T10:07:05.496Z,1.90
2023-05-19T10:09:37.178Z,2.40
2023-05-19T10:12:07.299Z,2.17
2023-05-19T10:14:35.167Z,3.30
2023-05-19T10:17:03.062Z,3.50
2023-05-19T10:19:32.328Z,1.63
2023-05-19T10:22:00.239Z,1.80
2023-05-19T10:24:28.056Z,2.30
2023-05-19T10:27:01.880Z,2.00
2023-05-19T10:29:32.597Z,1.23
2023-05-19T10:32:07.746Z,1.33
2023-05-19T10:34:57.091Z,2.10
2023-05-19T10:37:35.318Z,1.33
2023-05-19T10:40:13.455Z,1.60
2023-05-19T10:42:52.665Z,2.00
2023-05-19T10:45:24.478Z,1.50
2023-05-19T10:47:57.113Z,1.30
2023-05-19T10:50:27.477Z,3.37
2023-05-19T10:53:00.041Z,1.67
2023-05-19T10:55:45.899Z,1.73
2023-05-19T10:58:14.208Z,1.50
2023-05-19T11:00:42.671Z,1.73
2023-05-19T11:03:14.959Z,1.70
2023-05-19T11:05:45.570Z,1.90
2023-05-19T11:08:14.222Z,1.97
2023-05-19T11:10:46.120Z,2.00
2023-05-19T11:13:23.061Z,1.80
2023-05-19T11:15:51.627Z,2.03
2023-05-19T11:18:21.151Z,1.80
2023-05-19T11:20:59.031Z,2.47
2023-05-19T11:23:27.806Z,2.80
2023-05-19T11:25:58.308Z,2.23
2023-05-19T11:28:27.982Z,2.80
2023-05-19T11:30:58.970Z,3.23
2023-05-19T11:33:29.990Z,2.47
2023-05-19T11:35:59.282Z,2.30
2023-05-19T11:38:29.733Z,2.03
2023-05-19T11:41:00.177Z,3.00
2023-05-19T11:43:29.303Z,2.80
2023-05-19T11:45:58.736Z,2.43
2023-05-19T11:48:27.696Z,2.03
2023-05-19T11:50:56.746Z,2.83
2023-05-19T11:53:26.331Z,3.13
2023-05-19T11:55:56.779Z,2.80
2023-05-19T11:58:27.978Z,2.27
2023-05-19T12:00:56.614Z,2.47
2023-05-19T12:03:28.093Z,2.20
2023-05-19T12:05:56.628Z,3.10
2023-05-19T12:08:27.018Z,2.50
2023-05-19T12:10:58.373Z,2.70
2023-05-19T12:13:26.654Z,2.10
2023-05-19T12:15:54.652Z,2.20
2023-05-19T12:18:22.725Z,2.43
2023-05-19T12:20:51.123Z,3.17
2023-05-19T12:23:21.799Z,2.67
2023-05-19T12:25:52.873Z,2.03
2023-05-19T12:28:21.805Z,3.30
2023-05-19T12:30:52.529Z,2.37
2023-05-19T12:33:24.707Z,2.60
2023-05-19T12:35:52.909Z,2.60
2023-05-19T12:38:21.464Z,2.60
2023-05-19T12:40:52.800Z,2.80
2023-05-19T12:43:23.201Z,2.57
2023-05-19T12:45:52.504Z,2.63
2023-05-19T12:48:25.711Z,2.40
2023-05-19T12:50:56.589Z,2.77
2023-05-19T12:53:28.250Z,3.40
2023-05-19T12:56:00.856Z,2.70
2023-05-19T12:58:36.090Z,3.23
2023-05-19T13:01:06.158Z,3.30
2023-05-19T13:03:34.265Z,2.63
2023-05-19T13:06:04.746Z,2.40
2023-05-19T13:08:33.820Z,2.87
2023-05-19T13:11:04.639Z,2.63
2023-05-19T13:13:32.872Z,2.50
2023-05-19T13:16:01.265Z,2.70
2023-05-19T13:18:33.570Z,3.20
2023-05-19T13:21:04.022Z,2.37
2023-05-19T13:23:32.019Z,2.83
2023-05-19T13:26:00.205Z,3.00
2023-05-19T13:28:30.093Z,2.93
2023-05-19T13:30:58.216Z,3.27
2023-05-19T13:33:27.755Z,2.77
2023-05-19T13:35:56.750Z,3.87
2023-05-19T13:38:25.090Z,3.30
2023-05-19T13:40:53.279Z,2.33
2023-05-19T13:43:21.582Z,2.90
2023-05-19T13:45:50.925Z,2.93
2023-05-19T13:48:19.097Z,2.60
2023-05-19T13:50:47.125Z,3.10
2023-05-19T13:53:15.452Z,3.00
2023-05-19T13:55:43.489Z,3.27
2023-05-19T13:58:12.542Z,3.17
2023-05-19T14:00:40.855Z,2.77
2023-05-19T14:03:10.518Z,3.43
2023-05-19T14:05:38.620Z,2.63
2023-05-19T14:08:08.517Z,2.90
2023-05-19T14:10:36.531Z,3.53
2023-05-19T14:13:30.270Z,3.10
2023-05-19T14:15:54.379Z,3.43
2023-05-19T14:18:28.355Z,2.90
2023-05-19T14:20:56.457Z,3.20
2023-05-19T14:23:24.538Z,2.97
2023-05-19T14:25:52.677Z,3.30
2023-05-19T14:28:20.735Z,4.20
2023-05-19T14:30:49.282Z,3.03
2023-05-19T14:33:17.576Z,4.27
2023-05-19T14:35:46.983Z,3.00
2023-05-19T14:38:15.118Z,3.10
2023-05-19T14:40:43.924Z,3.00
2023-05-19T14:43:13.796Z,3.15
2023-05-19T14:45:42.794Z,3.20
2023-05-19T14:48:12.329Z,3.10
2023-05-19T14:50:40.361Z,3.30
2023-05-19T14:53:11.103Z,3.00
2023-05-19T14:55:39.152Z,2.90
2023-05-19T14:58:19.750Z,2.67
2023-05-19T15:00:55.630Z,4.07
2023-05-19T15:03:27.225Z,3.20
2023-05-19T15:05:56.792Z,2.85
2023-05-19T15:08:27.454Z,2.90
2023-05-19T15:10:55.822Z,2.95
2023-05-19T15:13:23.669Z,2.93
2023-05-19T15:16:08.402Z,4.18
2023-05-19T15:18:45.313Z,3.20
2023-05-19T15:21:13.728Z,2.70
2023-05-19T15:23:43.461Z,3.03
2023-05-19T15:26:13.307Z,3.40
2023-05-19T15:28:41.130Z,3.55
2023-05-19T15:31:09.155Z,2.80
2023-05-19T15:33:37.149Z,3.08
2023-05-19T15:36:07.411Z,2.95
2023-05-19T15:38:36.849Z,3.13
2023-05-19T15:41:09.497Z,3.20
2023-05-19T15:43:41.390Z,2.60
2023-05-19T15:46:14.903Z,2.93
2023-05-19T15:48:42.975Z,2.70
2023-05-19T15:51:11.438Z,2.93
2023-05-19T15:53:39.514Z,3.83
2023-05-19T15:56:08.985Z,2.80
2023-05-19T15:58:37.103Z,3.00
2023-05-19T16:01:05.564Z,2.67
2023-05-19T16:03:33.784Z,2.67
2023-05-19T16:06:01.873Z,3.17
2023-05-19T16:08:30.209Z,2.90
2023-05-19T16:10:58.247Z,2.70
2023-05-19T16:13:27.680Z,3.23
2023-05-19T16:15:56.073Z,2.80
2023-05-19T16:18:24.518Z,3.00
2023-05-19T16:20:52.668Z,3.67
2023-05-19T16:23:23.718Z,2.33
2023-05-19T16:25:53.150Z,2.70
2023-05-19T16:28:24.969Z,3.00
2023-05-19T16:31:02.106Z,2.80
2023-05-19T16:33:30.995Z,2.60
2023-05-19T16:35:59.765Z,2.83
2023-05-19T16:38:28.682Z,2.97
2023-05-19T16:40:56.873Z,2.80
2023-05-19T16:43:24.904Z,2.87
2023-05-19T16:45:52.976Z,2.80
2023-05-19T16:48:22.346Z,2.90
2023-05-19T16:50:50.671Z,3.30
2023-05-19T16:53:20.376Z,3.00
2023-05-19T16:55:48.607Z,3.17
2023-05-19T16:58:17.628Z,2.70
2023-05-19T17:00:45.848Z,2.80
2023-05-19T17:03:15.068Z,3.07
2023-05-19T17:05:46.701Z,3.40
2023-05-19T17:08:14.837Z,3.00
2023-05-19T17:10:44.674Z,3.00
2023-05-19T17:13:14.327Z,3.00
2023-05-19T17:15:43.558Z,2.20
2023-05-19T17:18:12.455Z,3.13
2023-05-19T17:20:42.949Z,3.08
2023-05-19T17:23:12.374Z,2.58
2023-05-19T17:25:41.142Z,2.50
2023-05-19T17:28:11.217Z,2.42
2023-05-19T17:30:41.517Z,2.22
2023-05-19T17:33:09.773Z,3.13
2023-05-19T17:35:37.653Z,2.38
2023-05-19T17:38:05.787Z,2.65
2023-05-19T17:40:35.745Z,2.83
2023-05-19T17:43:04.202Z,2.75
2023-05-19T17:45:31.941Z,2.40
2023-05-19T17:48:00.256Z,2.60
2023-05-19T17:50:28.524Z,2.60
2023-05-19T17:52:56.817Z,3.20
2023-05-19T17:55:29.719Z,3.03
2023-05-19T17:57:59.827Z,3.58
2023-05-19T18:00:28.229Z,4.03
2023-05-19T18:02:57.786Z,2.60
2023-05-19T18:05:26.496Z,3.00
2023-05-19T18:07:55.283Z,2.50
2023-05-19T18:10:27.072Z,2.65
2023-05-19T18:12:55.209Z,2.20
2023-05-19T18:15:26.522Z,2.50
2023-05-19T18:17:56.525Z,2.58
2023-05-19T18:20:25.998Z,2.63
2023-05-19T18:22:54.168Z,2.35
2023-05-19T18:25:24.498Z,2.75
2023-05-19T18:27:55.646Z,2.67
2023-05-19T18:30:25.566Z,2.75
2023-05-19T18:32:53.712Z,2.60
2023-05-19T18:35:23.151Z,3.28
2023-05-19T18:37:56.407Z,2.55
2023-05-19T18:40:26.039Z,2.47
2023-05-19T18:42:56.546Z,2.58
2023-05-19T18:45:27.294Z,2.88
2023-05-19T18:47:59.763Z,2.92
2023-05-19T18:50:29.247Z,2.90
2023-05-19T18:52:57.420Z,2.80
2023-05-19T18:55:25.641Z,2.47
2023-05-19T18:57:54.166Z,3.05
2023-05-19T19:00:22.712Z,2.83
2023-05-19T19:02:52.297Z,2.88
2023-05-19T19:05:20.527Z,2.35
2023-05-19T19:07:49.333Z,2.60
2023-05-19T19:10:17.715Z,2.92
2023-05-19T19:12:46.106Z,2.40
2023-05-19T19:15:14.250Z,2.30
2023-05-19T19:17:42.529Z,2.78
2023-05-19T19:20:16.037Z,2.78
2023-05-19T19:22:45.759Z,3.05
2023-05-19T19:25:14.806Z,3.65
2023-05-19T19:27:42.908Z,2.65
2023-05-19T19:30:11.359Z,2.75
2023-05-19T19:32:42.453Z,2.60
2023-05-19T19:35:13.954Z,2.83
2023-05-19T19:37:43.513Z,2.60
2023-05-19T19:40:13.015Z,3.00
2023-05-19T19:42:42.173Z,4.20
2023-05-19T19:45:13.083Z,3.47
2023-05-19T19:47:43.498Z,4.18
2023-05-19T19:50:15.680Z,3.10
2023-05-19T19:52:43.666Z,4.00
2023-05-19T19:55:11.700Z,3.70
2023-05-19T19:57:39.729Z,3.58
2023-05-19T20:00:09.121Z,3.85
2023-05-19T20:02:45.523Z,3.60
2023-05-19T20:05:25.006Z,3.30
2023-05-19T20:07:56.479Z,3.83
2023-05-19T20:10:25.853Z,3.67
2023-05-19T20:12:55.229Z,4.05
2023-05-19T20:15:23.803Z,3.60
2023-05-19T20:17:51.681Z,3.40
2023-05-19T20:20:19.770Z,4.07
2023-05-19T20:22:50.854Z,4.57
2023-05-19T20:25:18.806Z,3.78
2023-05-19T20:27:46.787Z,3.58
2023-05-19T20:30:14.626Z,3.95
2023-05-19T20:32:42.366Z,3.45
2023-05-19T20:35:12.306Z,4.15
2023-05-19T20:37:40.946Z,4.00
2023-05-19T20:40:13.254Z,4.10
2023-05-19T20:42:42.596Z,4.68
2023-05-19T20:45:10.851Z,4.25
2023-05-19T20:47:40.011Z,4.72
2023-05-19T20:50:10.003Z,4.43
2023-05-19T20:52:38.425Z,4.45
2023-05-19T20:55:09.955Z,4.88
2023-05-19T20:57:38.783Z,5.18
2023-05-19T21:00:11.404Z,4.38
2023-05-19T21:02:39.376Z,4.43
2023-05-19T21:05:07.598Z,4.00
2023-05-19T21:07:35.441Z,4.30
2023-05-19T21:10:03.361Z,4.65
2023-05-19T21:12:34.256Z,5.07
2023-05-19T21:15:03.523Z,4.72
2023-05-19T21:17:31.417Z,4.88
2023-05-19T21:20:00.263Z,4.68
2023-05-19T21:22:28.612Z,4.57
2023-05-19T21:24:57.135Z,4.57
2023-05-19T21:27:25.034Z,5.75
2023-05-19T21:29:54.696Z,5.18
2023-05-19T21:32:23.562Z,4.35
2023-05-19T21:34:51.726Z,5.45
2023-05-19T21:37:21.072Z,4.60
2023-05-19T21:39:49.110Z,4.30
2023-05-19T21:42:17.298Z,4.28
2023-05-19T21:44:45.589Z,4.50
2023-05-19T21:47:15.193Z,5.95
2023-05-19T21:49:43.314Z,4.82
2023-05-19T21:52:11.169Z,4.43
2023-05-19T21:54:39.166Z,4.80
2023-05-19T21:57:07.024Z,5.68
2023-05-19T21:59:35.032Z,4.50
2023-05-19T22:02:03.196Z,4.72
2023-05-19T22:04:32.665Z,4.60
2023-05-19T22:07:00.923Z,4.70
2023-05-19T22:09:29.071Z,5.30
2023-05-19T22:11:57.144Z,4.50
2023-05-19T22:14:25.152Z,3.90
2023-05-19T22:16:53.270Z,4.60
2023-05-19T22:19:21.473Z,4.20
2023-05-19T22:21:58.418Z,4.57
2023-05-19T22:24:30.819Z,5.22
2023-05-19T22:26:58.630Z,3.60
2023-05-19T22:29:26.592Z,4.30
2023-05-19T22:31:55.379Z,4.45
2023-05-19T22:34:25.531Z,3.58
2023-05-19T22:36:55.299Z,4.85
2023-05-19T22:39:23.268Z,3.83
2023-05-19T22:41:51.292Z,4.28
2023-05-19T22:44:19.795Z,3.42
2023-05-19T22:46:47.836Z,4.05
2023-05-19T22:49:15.958Z,3.97
2023-05-19T22:51:43.929Z,3.88
2023-05-19T22:54:13.359Z,3.88
2023-05-19T22:56:44.335Z,3.83
2023-05-19T22:59:13.210Z,4.63
2023-05-19T23:01:41.325Z,4.72
2023-05-19T23:04:09.338Z,4.03
2023-05-19T23:06:37.585Z,4.57
2023-05-19T23:09:05.794Z,4.35
2023-05-19T23:11:35.853Z,4.57
2023-05-19T23:14:03.957Z,4.20
2023-05-19T23:16:32.076Z,4.47
2023-05-19T23:19:00.076Z,3.80
2023-05-19T23:21:28.181Z,4.15
2023-05-19T23:23:56.082Z,4.10
2023-05-19T23:26:24.111Z,3.75
2023-05-19T23:28:53.337Z,3.75
2023-05-19T23:31:21.479Z,3.85
2023-05-19T23:33:49.410Z,5.20
2023-05-19T23:36:17.756Z,3.63
2023-05-19T23:38:45.731Z,4.00
2023-05-19T23:41:13.698Z,3.60
2023-05-19T23:43:41.659Z,3.90
2023-05-19T23:46:11.048Z,3.80
2023-05-19T23:48:40.971Z,3.90
2023-05-19T23:51:09.093Z,4.00
2023-05-19T23:53:37.400Z,4.13
2023-05-19T23:56:06.172Z,3.83
2023-05-19T23:58:34.256Z,4.35
